createdAt,value
2023-02-20T00:01:36.400Z,265.20
2023-02-20T00:04:03.665Z,212.73
2023-02-20T00:06:33.431Z,230.18
2023-02-20T00:09:00.411Z,216.60
2023-02-20T00:11:27.463Z,211.88
2023-02-20T00:13:54.578Z,223.60
2023-02-20T00:16:21.698Z,212.95
2023-02-20T00:18:48.777Z,203.02
2023-02-20T00:21:15.904Z,212.05
2023-02-20T00:23:43.098Z,198.63
2023-02-20T00:26:13.103Z,190.75
2023-02-20T00:28:44.064Z,216.82
2023-02-20T00:31:18.812Z,225.45
2023-02-20T00:33:46.457Z,203.10
2023-02-20T00:36:20.843Z,211.40
2023-02-20T00:38:48.225Z,200.65
2023-02-20T00:41:15.873Z,195.35
2023-02-20T00:43:42.996Z,188.63
2023-02-20T00:46:15.360Z,187.85
2023-02-20T00:48:43.510Z,191.98
2023-02-20T00:51:29.807Z,220.13
2023-02-20T00:53:57.170Z,256.63
2023-02-20T00:56:26.329Z,224.50
2023-02-20T00:58:53.398Z,278.83
2023-02-20T01:01:20.794Z,265.92
2023-02-20T01:03:47.980Z,215.18
2023-02-20T01:06:15.479Z,206.65
2023-02-20T01:08:43.948Z,245.18
2023-02-20T01:11:11.366Z,189.07
2023-02-20T01:13:38.417Z,210.75
2023-02-20T01:16:07.719Z,222.80
2023-02-20T01:18:35.105Z,205.32
2023-02-20T01:21:02.823Z,228.95
2023-02-20T01:23:29.853Z,211.18
2023-02-20T01:25:57.904Z,205.13
2023-02-20T01:28:24.986Z,209.95
2023-02-20T01:30:52.089Z,186.02
2023-02-20T01:33:19.151Z,172.07
2023-02-20T01:35:46.158Z,166.57
2023-02-20T01:38:13.189Z,162.23
2023-02-20T01:40:47.385Z,205.48
2023-02-20T01:45:43.965Z,200.85
2023-02-20T01:48:26.391Z,203.30
2023-02-20T01:50:59.220Z,169.73
2023-02-20T01:53:30.759Z,171.65
2023-02-20T01:56:05.883Z,160.88
2023-02-20T01:58:42.934Z,156.13
2023-02-20T02:01:11.859Z,158.00
2023-02-20T02:03:48.233Z,146.82
2023-02-20T02:06:17.150Z,144.13
2023-02-20T02:08:45.579Z,143.10
2023-02-20T02:11:18.285Z,138.32
2023-02-20T02:13:45.511Z,140.13
2023-02-20T02:16:27.721Z,141.73
2023-02-20T02:19:00.750Z,137.00
2023-02-20T02:22:12.845Z,171.48
2023-02-20T02:24:52.491Z,148.65
2023-02-20T02:28:15.725Z,159.63
2023-02-20T02:31:07.780Z,140.18
2023-02-20T02:33:59.203Z,145.23
2023-02-20T02:36:42.832Z,139.35
2023-02-20T02:39:43.952Z,136.50
2023-02-20T02:42:19.388Z,128.80
2023-02-20T02:45:05.699Z,141.95
2023-02-20T02:47:47.108Z,143.75
2023-02-20T02:50:25.383Z,128.32
2023-02-20T02:52:54.255Z,118.85
2023-02-20T02:55:25.104Z,120.25
2023-02-20T02:57:53.910Z,110.07
2023-02-20T03:00:33.165Z,108.22
2023-02-20T03:03:20.785Z,111.53
2023-02-20T03:06:04.422Z,101.13
2023-02-20T03:08:44.734Z,106.60
2023-02-20T03:11:17.190Z,104.40
2023-02-20T03:16:56.519Z,98.88
2023-02-20T03:20:01.335Z,97.38
2023-02-20T03:22:53.505Z,99.78
2023-02-20T03:25:29.009Z,91.80
2023-02-20T03:28:03.776Z,99.45
2023-02-20T03:30:41.128Z,99.82
2023-02-20T03:33:35.339Z,93.85
2023-02-20T03:36:26.797Z,100.43
2023-02-20T03:39:33.119Z,80.28
2023-02-20T03:42:21.458Z,61.35
2023-02-20T03:44:55.747Z,59.40
2023-02-20T03:47:26.677Z,66.90
2023-02-20T03:49:56.025Z,67.55
2023-02-20T03:52:24.206Z,62.95
2023-02-20T03:54:52.753Z,74.05
2023-02-20T03:57:28.289Z,175.38
2023-02-20T04:00:04.848Z,87.80
2023-02-20T04:02:46.308Z,55.42
2023-02-20T04:05:24.106Z,69.25
2023-02-20T04:08:02.634Z,65.35
2023-02-20T04:10:44.942Z,103.85
2023-02-20T04:13:15.415Z,68.40
2023-02-20T04:15:47.150Z,71.78
2023-02-20T04:18:18.465Z,52.15
2023-02-20T04:20:55.514Z,49.78
2023-02-20T04:23:31.651Z,48.88
2023-02-20T04:26:19.142Z,51.58
2023-02-20T04:28:48.790Z,59.38
2023-02-20T04:31:19.227Z,74.20
2023-02-20T04:33:48.015Z,50.15
2023-02-20T04:36:21.036Z,49.90
2023-02-20T04:38:49.599Z,61.88
2023-02-20T04:41:20.115Z,57.85
2023-02-20T04:43:47.927Z,52.47
2023-02-20T04:46:15.815Z,74.75
2023-02-20T04:48:43.181Z,103.38
2023-02-20T04:51:11.129Z,90.90
2023-02-20T04:53:38.616Z,116.60
2023-02-20T04:56:06.213Z,119.43
2023-02-20T04:58:37.425Z,144.23
2023-02-20T05:01:19.137Z,396.98
2023-02-20T05:03:46.409Z,282.92
2023-02-20T05:06:13.686Z,195.27
2023-02-20T05:08:40.854Z,126.05
2023-02-20T05:11:08.879Z,125.43
2023-02-20T05:13:35.915Z,135.35
2023-02-20T05:16:03.473Z,331.25
2023-02-20T05:18:31.516Z,252.20
2023-02-20T05:21:17.105Z,182.35
2023-02-20T05:23:47.195Z,184.13
2023-02-20T05:26:21.107Z,146.70
2023-02-20T05:28:48.285Z,149.40
2023-02-20T05:31:17.641Z,138.95
2023-02-20T05:33:45.114Z,216.90
2023-02-20T05:36:12.616Z,161.98
2023-02-20T05:38:41.584Z,87.63
2023-02-20T05:41:08.858Z,141.10
2023-02-20T05:43:35.924Z,98.90
2023-02-20T05:46:03.095Z,229.02
2023-02-20T05:48:30.204Z,251.25
2023-02-20T05:50:57.844Z,240.77
2023-02-20T05:53:28.649Z,177.38
2023-02-20T05:55:56.126Z,438.70
2023-02-20T05:58:24.386Z,96.25
2023-02-20T06:00:52.815Z,121.75
2023-02-20T06:03:20.647Z,123.32
2023-02-20T06:05:47.679Z,339.08
2023-02-20T06:08:14.816Z,373.42
2023-02-20T06:10:41.941Z,188.30
2023-02-20T06:13:09.058Z,325.50
2023-02-20T06:15:36.095Z,143.73
2023-02-20T06:18:03.308Z,154.43
2023-02-20T06:20:30.450Z,140.90
2023-02-20T06:22:57.661Z,108.53
2023-02-20T06:25:24.826Z,106.95
2023-02-20T06:27:51.943Z,122.30
2023-02-20T06:30:19.222Z,100.35
2023-02-20T06:32:46.341Z,103.40
2023-02-20T06:35:13.529Z,113.80
2023-02-20T06:37:40.564Z,112.13
2023-02-20T06:40:09.164Z,114.13
2023-02-20T06:42:36.781Z,106.72
2023-02-20T06:45:05.484Z,129.88
2023-02-20T06:47:33.172Z,124.38
2023-02-20T06:50:00.247Z,126.07
2023-02-20T06:52:27.421Z,139.75
2023-02-20T06:54:54.624Z,122.28
2023-02-20T06:57:22.447Z,127.55
2023-02-20T06:59:49.864Z,112.28
2023-02-20T07:02:18.488Z,120.82
2023-02-20T07:04:49.984Z,122.45
2023-02-20T07:07:17.147Z,119.68
2023-02-20T07:09:44.687Z,127.55
2023-02-20T07:12:12.405Z,121.13
2023-02-20T07:14:39.557Z,127.95
2023-02-20T07:17:06.604Z,132.10
2023-02-20T07:19:33.612Z,128.25
2023-02-20T07:22:00.751Z,142.35
2023-02-20T07:24:28.676Z,142.85
2023-02-20T07:29:22.752Z,166.88
2023-02-20T07:31:49.973Z,138.50
2023-02-20T07:34:17.093Z,165.80
2023-02-20T07:36:44.270Z,173.77
2023-02-20T07:39:13.611Z,160.82
2023-02-20T07:41:41.103Z,146.75
2023-02-20T07:44:28.117Z,159.73
2023-02-20T07:46:55.777Z,151.93
2023-02-20T07:49:22.926Z,166.60
2023-02-20T07:51:50.040Z,172.93
2023-02-20T07:54:17.107Z,192.25
2023-02-20T07:56:44.346Z,183.95
2023-02-20T07:59:11.729Z,177.40
2023-02-20T08:01:39.485Z,194.65
2023-02-20T08:04:06.713Z,204.45
2023-02-20T08:06:34.376Z,213.48
2023-02-20T08:09:02.368Z,215.30
2023-02-20T08:11:34.293Z,202.20
2023-02-20T08:14:02.316Z,233.48
2023-02-20T08:16:29.515Z,240.88
2023-02-20T08:18:57.013Z,207.38
2023-02-20T08:21:24.045Z,243.15
2023-02-20T08:23:52.931Z,242.90
2023-02-20T08:26:20.052Z,225.73
2023-02-20T08:28:49.448Z,207.88
2023-02-20T08:31:30.906Z,215.02
2023-02-20T08:33:59.262Z,254.88
2023-02-20T08:36:26.537Z,237.80
2023-02-20T08:38:54.973Z,237.25
2023-02-20T08:41:21.972Z,235.50
2023-02-20T08:43:49.277Z,226.85
2023-02-20T08:46:16.814Z,230.18
2023-02-20T08:48:45.205Z,221.30
2023-02-20T08:51:12.689Z,268.77
2023-02-20T08:53:40.714Z,247.30
2023-02-20T08:56:08.883Z,237.23
2023-02-20T08:58:36.476Z,231.95
2023-02-20T09:01:05.396Z,224.18
2023-02-20T09:03:35.125Z,223.05
2023-02-20T09:06:02.854Z,222.98
2023-02-20T09:08:29.881Z,229.70
2023-02-20T09:10:57.188Z,231.88
2023-02-20T09:13:24.273Z,242.23
2023-02-20T09:15:51.471Z,236.80
2023-02-20T09:18:18.915Z,225.25
2023-02-20T09:20:46.431Z,242.98
2023-02-20T09:23:14.594Z,213.60
2023-02-20T09:25:42.195Z,231.43
2023-02-20T09:28:09.820Z,231.63
2023-02-20T09:30:37.014Z,216.07
2023-02-20T09:33:04.427Z,219.15
2023-02-20T09:35:31.881Z,207.88
2023-02-20T09:37:59.153Z,215.35
2023-02-20T09:40:31.146Z,202.30
2023-02-20T09:43:29.284Z,207.82
2023-02-20T09:46:22.836Z,227.52
2023-02-20T09:49:19.474Z,216.50
2023-02-20T09:51:54.479Z,200.90
2023-02-20T09:54:36.749Z,201.50
2023-02-20T09:57:12.187Z,201.20
2023-02-20T09:59:49.261Z,209.80
2023-02-20T10:02:25.332Z,205.18
2023-02-20T10:05:02.417Z,200.02
2023-02-20T10:07:43.044Z,190.52
2023-02-20T10:10:39.518Z,190.10
2023-02-20T10:13:38.158Z,192.88
2023-02-20T10:16:39.177Z,203.98
2023-02-20T10:19:15.794Z,184.35
2023-02-20T10:22:10.429Z,186.95
2023-02-20T10:25:24.594Z,183.55
2023-02-20T10:28:03.660Z,184.82
2023-02-20T10:30:44.793Z,181.95
2023-02-20T10:33:30.179Z,183.85
2023-02-20T10:36:17.973Z,166.27
2023-02-20T10:38:56.379Z,176.98
2023-02-20T10:41:42.464Z,151.57
2023-02-20T10:44:18.511Z,162.38
2023-02-20T10:46:52.594Z,150.10
2023-02-20T10:50:08.841Z,143.20
2023-02-20T10:55:15.727Z,131.45
2023-02-20T10:57:58.252Z,140.88
2023-02-20T11:00:34.927Z,130.02
2023-02-20T11:03:48.301Z,133.98
2023-02-20T11:06:20.679Z,127.50
2023-02-20T11:08:47.886Z,124.85
2023-02-20T11:11:32.416Z,131.43
2023-02-20T11:14:05.760Z,130.23
2023-02-20T11:16:41.618Z,127.20
2023-02-20T11:19:18.039Z,117.57
2023-02-20T11:21:51.009Z,124.43
2023-02-20T11:24:35.627Z,122.68
2023-02-20T11:30:03.922Z,119.60
2023-02-20T11:32:38.057Z,116.47
2023-02-20T11:35:21.472Z,115.53
2023-02-20T11:38:11.831Z,116.85
2023-02-20T11:40:39.061Z,121.38
2023-02-20T11:43:28.121Z,113.35
2023-02-20T11:46:27.716Z,114.05
2023-02-20T11:48:54.746Z,106.07
2023-02-20T11:51:39.238Z,114.57
2023-02-20T11:57:16.482Z,102.72
2023-02-20T11:59:49.445Z,100.28
2023-02-20T12:02:16.532Z,111.20
2023-02-20T12:04:47.174Z,109.82
2023-02-20T12:07:43.362Z,108.40
2023-02-20T12:10:33.667Z,114.22
2023-02-20T12:13:01.178Z,105.28
2023-02-20T12:15:30.069Z,106.18
2023-02-20T12:18:18.643Z,100.53
2023-02-20T12:21:29.759Z,106.00
2023-02-20T12:24:29.073Z,104.53
2023-02-20T12:27:00.415Z,108.63
2023-02-20T12:29:33.494Z,101.65
2023-02-20T12:33:10.308Z,104.45
2023-02-20T12:36:01.445Z,103.07
2023-02-20T12:39:09.747Z,98.70
2023-02-20T12:42:06.392Z,98.88
2023-02-20T12:45:17.265Z,96.43
2023-02-20T12:47:46.007Z,108.47
2023-02-20T12:50:42.601Z,110.85
2023-02-20T12:53:35.723Z,99.75
2023-02-20T12:56:35.105Z,108.65
2023-02-20T12:59:27.060Z,105.65
2023-02-20T13:01:56.131Z,106.38
2023-02-20T13:04:45.985Z,102.40
2023-02-20T13:07:22.164Z,102.22
2023-02-20T13:10:23.505Z,109.88
2023-02-20T13:12:53.217Z,102.15
2023-02-20T13:15:57.933Z,97.38
2023-02-20T13:18:49.248Z,91.60
2023-02-20T13:21:19.318Z,100.70
2023-02-20T13:23:50.140Z,98.90
2023-02-20T13:26:35.774Z,94.70
2023-02-20T13:29:38.248Z,100.10
2023-02-20T13:32:17.244Z,99.63
2023-02-20T13:34:44.504Z,99.18
2023-02-20T13:37:37.575Z,92.28
2023-02-20T13:40:29.236Z,97.15
2023-02-20T13:43:31.125Z,91.72
2023-02-20T13:46:01.187Z,88.35
2023-02-20T13:48:29.098Z,96.38
2023-02-20T13:51:15.069Z,81.63
2023-02-20T13:53:51.166Z,85.00
2023-02-20T13:56:24.981Z,94.22
2023-02-20T13:58:58.012Z,82.53
2023-02-20T14:01:26.379Z,90.40
2023-02-20T14:04:05.997Z,84.05
2023-02-20T14:06:33.085Z,86.20
2023-02-20T14:09:24.324Z,80.15
2023-02-20T14:12:05.807Z,76.53
2023-02-20T14:14:39.211Z,66.25
2023-02-20T14:17:22.208Z,69.05
2023-02-20T14:20:08.436Z,72.10
2023-02-20T14:22:40.395Z,61.80
2023-02-20T14:25:25.134Z,71.63
2023-02-20T14:27:52.598Z,70.18
2023-02-20T14:30:23.023Z,71.75
2023-02-20T14:32:59.762Z,70.88
2023-02-20T14:36:11.832Z,60.28
2023-02-20T14:38:51.371Z,50.05
2023-02-20T14:41:23.071Z,47.80
2023-02-20T14:44:02.677Z,57.45
2023-02-20T14:46:33.496Z,56.72
2023-02-20T14:49:10.551Z,53.60
2023-02-20T14:51:39.268Z,60.53
2023-02-20T14:54:21.972Z,64.55
2023-02-20T14:56:51.346Z,63.33
2023-02-20T14:59:29.062Z,67.53
2023-02-20T15:02:12.029Z,69.95
2023-02-20T15:05:01.094Z,76.47
2023-02-20T15:07:29.140Z,71.70
2023-02-20T15:10:00.359Z,73.15
2023-02-20T15:12:34.007Z,71.10
2023-02-20T15:15:07.391Z,82.50
2023-02-20T15:17:41.405Z,86.82
2023-02-20T15:20:20.610Z,86.00
2023-02-20T15:22:47.756Z,77.38
2023-02-20T15:25:32.208Z,84.55
2023-02-20T15:31:11.560Z,89.10
2023-02-20T15:33:43.388Z,73.95
2023-02-20T15:36:14.993Z,78.07
2023-02-20T15:38:42.950Z,84.05
2023-02-20T15:41:11.825Z,87.85
2023-02-20T15:43:49.662Z,79.88
2023-02-20T15:46:19.139Z,89.85
2023-02-20T15:48:50.261Z,81.07
2023-02-20T15:51:22.256Z,81.97
2023-02-20T15:53:53.688Z,80.22
2023-02-20T15:56:20.853Z,85.82
2023-02-20T15:58:49.232Z,82.20
2023-02-20T16:01:17.208Z,82.40
2023-02-20T16:03:52.150Z,81.47
2023-02-20T16:06:22.827Z,83.38
2023-02-20T16:08:59.148Z,84.38
2023-02-20T16:11:41.123Z,86.15
2023-02-20T16:14:10.267Z,87.82
2023-02-20T16:16:45.206Z,86.97
2023-02-20T16:19:16.824Z,83.93
2023-02-20T16:21:58.300Z,85.80
2023-02-20T16:24:26.628Z,84.63
2023-02-20T16:26:54.498Z,88.75
2023-02-20T16:29:31.800Z,85.53
2023-02-20T16:32:02.112Z,87.40
2023-02-20T16:34:33.171Z,85.47
2023-02-20T16:37:01.486Z,84.53
2023-02-20T16:39:28.986Z,85.35
2023-02-20T16:41:58.666Z,88.57
2023-02-20T16:44:41.384Z,91.80
2023-02-20T16:47:22.319Z,84.00
2023-02-20T16:49:50.144Z,84.72
2023-02-20T16:52:30.328Z,85.00
2023-02-20T16:54:59.274Z,89.03
2023-02-20T16:57:27.609Z,89.30
2023-02-20T16:59:58.488Z,91.93
2023-02-20T17:02:32.135Z,96.95
2023-02-20T17:05:01.236Z,96.65
2023-02-20T17:07:31.257Z,102.57
2023-02-20T17:09:58.566Z,90.72
2023-02-20T17:12:26.411Z,89.90
2023-02-20T17:14:54.420Z,96.10
2023-02-20T17:17:22.067Z,97.72
2023-02-20T17:22:22.010Z,94.47
2023-02-20T17:24:50.087Z,93.80
2023-02-20T17:27:19.307Z,91.10
2023-02-20T17:29:47.548Z,94.65
2023-02-20T17:32:16.079Z,94.88
2023-02-20T17:34:44.272Z,96.80
2023-02-20T17:37:13.423Z,100.20
2023-02-20T17:39:40.439Z,93.75
2023-02-20T17:42:08.496Z,91.25
2023-02-20T17:44:38.405Z,94.35
2023-02-20T17:47:08.260Z,109.35
2023-02-20T17:49:38.859Z,102.75
2023-02-20T17:52:07.828Z,97.55
2023-02-20T17:54:35.634Z,98.40
2023-02-20T17:57:03.392Z,101.68
2023-02-20T17:59:30.603Z,97.07
2023-02-20T18:01:57.963Z,107.40
2023-02-20T18:04:25.967Z,99.28
2023-02-20T18:06:54.406Z,94.40
2023-02-20T18:09:22.720Z,104.75
2023-02-20T18:11:51.422Z,100.03
2023-02-20T18:14:20.393Z,98.85
2023-02-20T18:16:48.074Z,106.07
2023-02-20T18:19:18.000Z,95.60
2023-02-20T18:21:49.902Z,103.35
2023-02-20T18:24:21.256Z,87.43
2023-02-20T18:26:50.425Z,101.72
2023-02-20T18:29:17.436Z,106.38
2023-02-20T18:31:44.656Z,99.25
2023-02-20T18:34:12.118Z,101.53
2023-02-20T18:36:39.980Z,108.32
2023-02-20T18:39:09.769Z,106.40
2023-02-20T18:41:38.213Z,106.90
2023-02-20T18:44:06.341Z,112.07
2023-02-20T18:46:39.721Z,98.35
2023-02-20T18:49:07.708Z,104.68
2023-02-20T18:51:38.753Z,107.63
2023-02-20T18:54:09.184Z,104.63
2023-02-20T18:56:36.841Z,98.43
2023-02-20T18:59:05.105Z,93.28
2023-02-20T19:01:34.261Z,91.97
2023-02-20T19:04:05.791Z,101.45
2023-02-20T19:06:45.299Z,100.72
2023-02-20T19:09:19.051Z,97.47
2023-02-20T19:11:55.243Z,89.75
2023-02-20T19:14:25.340Z,100.72
2023-02-20T19:16:57.161Z,98.30
2023-02-20T19:19:27.887Z,91.30
2023-02-20T19:21:55.214Z,87.18
2023-02-20T19:24:22.916Z,94.72
2023-02-20T19:26:50.905Z,94.55
2023-02-20T19:29:17.957Z,90.60
2023-02-20T19:31:45.038Z,98.38
2023-02-20T19:34:14.538Z,92.88
2023-02-20T19:36:42.786Z,92.15
2023-02-20T19:39:10.223Z,83.30
2023-02-20T19:41:38.223Z,95.93
2023-02-20T19:44:07.305Z,96.82
2023-02-20T19:46:35.443Z,97.88
2023-02-20T19:49:04.425Z,117.75
2023-02-20T19:51:31.479Z,110.82
2023-02-20T19:54:01.188Z,108.90
2023-02-20T19:56:28.488Z,103.57
2023-02-20T19:58:55.465Z,97.97
2023-02-20T20:01:22.684Z,100.18
2023-02-20T20:03:50.263Z,101.70
2023-02-20T20:06:19.380Z,98.90
2023-02-20T20:09:10.122Z,95.25
2023-02-20T20:11:35.191Z,95.30
2023-02-20T20:14:02.352Z,83.63
2023-02-20T20:16:29.702Z,93.43
2023-02-20T20:18:58.487Z,90.38
2023-02-20T20:21:26.158Z,93.57
2023-02-20T20:23:57.232Z,87.38
2023-02-20T20:26:30.480Z,86.57
2023-02-20T20:28:58.435Z,92.25
2023-02-20T20:31:28.577Z,99.13
2023-02-20T20:33:56.291Z,100.97
2023-02-20T20:36:23.315Z,109.72
2023-02-20T20:38:50.630Z,90.72
2023-02-20T20:41:18.142Z,92.95
2023-02-20T20:43:47.044Z,83.63
2023-02-20T20:46:16.538Z,89.95
2023-02-20T20:48:45.829Z,89.60
2023-02-20T20:51:16.362Z,93.07
2023-02-20T20:53:45.272Z,87.97
2023-02-20T20:56:12.986Z,91.63
2023-02-20T20:58:40.238Z,89.85
2023-02-20T21:01:07.766Z,86.80
2023-02-20T21:03:34.877Z,82.18
2023-02-20T21:06:02.066Z,79.90
2023-02-20T21:08:33.507Z,79.18
2023-02-20T21:11:00.910Z,78.75
2023-02-20T21:13:27.992Z,79.22
2023-02-20T21:15:55.102Z,74.68
2023-02-20T21:18:22.323Z,80.95
2023-02-20T21:20:49.663Z,82.05
2023-02-20T21:23:18.258Z,81.18
2023-02-20T21:25:45.620Z,80.47
2023-02-20T21:28:12.755Z,86.85
2023-02-20T21:30:39.942Z,87.85
2023-02-20T21:33:07.014Z,77.95
2023-02-20T21:35:34.055Z,85.70
2023-02-20T21:38:01.076Z,81.82
2023-02-20T21:40:28.197Z,77.22
2023-02-20T21:43:13.676Z,84.80
2023-02-20T21:45:40.959Z,81.05
2023-02-20T21:48:08.148Z,83.30
2023-02-20T21:50:35.491Z,86.13
2023-02-20T21:53:02.595Z,91.72
2023-02-20T21:55:33.857Z,85.18
2023-02-20T21:58:01.216Z,85.32
2023-02-20T22:00:28.409Z,81.10
2023-02-20T22:02:57.791Z,80.18
2023-02-20T22:05:25.187Z,80.32
2023-02-20T22:08:10.768Z,88.60
2023-02-20T22:10:56.400Z,79.85
2023-02-20T22:13:41.808Z,81.95
2023-02-20T22:16:27.509Z,84.15
2023-02-20T22:19:14.636Z,99.75
2023-02-20T22:22:00.667Z,87.80
2023-02-20T22:24:46.403Z,92.70
2023-02-20T22:27:31.988Z,81.53
2023-02-20T22:30:17.553Z,87.55
2023-02-20T22:33:03.361Z,92.95
2023-02-20T22:35:49.001Z,88.15
2023-02-20T22:38:34.490Z,93.47
2023-02-20T22:41:20.726Z,88.05
2023-02-20T22:44:06.415Z,96.50
2023-02-20T22:46:51.927Z,89.80
2023-02-20T22:49:37.609Z,95.40
2023-02-20T22:52:23.094Z,82.90
2023-02-20T22:55:09.662Z,92.97
2023-02-20T22:57:55.564Z,88.93
2023-02-20T23:00:42.265Z,87.53
2023-02-20T23:03:29.371Z,87.97
2023-02-20T23:06:18.359Z,79.85
2023-02-20T23:09:07.687Z,86.35
2023-02-20T23:11:57.857Z,84.65
2023-02-20T23:14:43.776Z,83.97
2023-02-20T23:17:36.273Z,86.07
2023-02-20T23:20:34.959Z,84.00
2023-02-20T23:23:21.548Z,89.40
2023-02-20T23:26:08.046Z,86.65
2023-02-20T23:28:54.434Z,84.07
2023-02-20T23:31:57.402Z,77.13
2023-02-20T23:34:43.927Z,69.70
2023-02-20T23:37:30.773Z,78.50
2023-02-20T23:40:21.227Z,78.82
2023-02-20T23:43:11.210Z,61.75
2023-02-20T23:45:56.749Z,63.55
2023-02-20T23:48:42.153Z,61.38
2023-02-20T23:51:30.619Z,67.80
2023-02-20T23:54:16.605Z,60.75
2023-02-20T23:57:01.821Z,75.82
2023-02-20T23:59:47.243Z,75.82
